createdAt,value
2023-04-09T00:00:12.735Z,48.34
2023-04-09T00:01:12.708Z,48.66
2023-04-09T00:02:12.744Z,48.18
2023-04-09T00:03:12.801Z,49.63
2023-04-09T00:04:12.734Z,50.60
2023-04-09T00:05:12.687Z,48.98
2023-04-09T00:06:12.682Z,48.34
2023-04-09T00:07:12.666Z,48.98
2023-04-09T00:08:12.721Z,48.34
2023-04-09T00:09:12.670Z,53.01
2023-04-09T00:10:12.672Z,51.56
2023-04-09T00:11:12.667Z,56.07
2023-04-09T00:12:12.627Z,48.50
2023-04-09T00:13:12.743Z,48.02
2023-04-09T00:14:12.681Z,48.50
2023-04-09T00:15:20.631Z,48.34
2023-04-09T00:16:14.683Z,48.18
2023-04-09T00:17:12.618Z,48.34
2023-04-09T00:18:12.628Z,48.34
2023-04-09T00:19:12.755Z,50.43
2023-04-09T00:20:12.714Z,56.56
2023-04-09T00:21:12.608Z,49.95
2023-04-09T00:22:12.614Z,48.82
2023-04-09T00:23:13.070Z,54.95
2023-04-09T00:24:13.612Z,53.98
2023-04-09T00:25:12.620Z,56.56
2023-04-09T00:26:12.559Z,48.18
2023-04-09T00:27:12.555Z,48.18
2023-04-09T00:28:12.541Z,49.15
2023-04-09T00:29:12.549Z,48.98
2023-04-09T00:30:12.607Z,48.50
2023-04-09T00:31:12.629Z,48.02
2023-04-09T00:32:12.553Z,49.15
2023-04-09T00:33:12.546Z,48.18
2023-04-09T00:34:12.564Z,48.34
2023-04-09T00:35:12.579Z,48.50
2023-04-09T00:36:12.571Z,51.08
2023-04-09T00:37:12.660Z,49.47
2023-04-09T00:38:12.520Z,47.86
2023-04-09T00:39:12.511Z,48.50
2023-04-09T00:40:12.549Z,48.02
2023-04-09T00:41:12.555Z,48.50
2023-04-09T00:42:12.569Z,56.56
2023-04-09T00:43:12.516Z,49.31
2023-04-09T00:44:12.477Z,48.18
2023-04-09T00:45:12.480Z,48.82
2023-04-09T00:46:12.609Z,48.98
2023-04-09T00:47:12.507Z,49.15
2023-04-09T00:48:12.460Z,50.27
2023-04-09T00:49:12.464Z,48.18
2023-04-09T00:50:12.484Z,48.66
2023-04-09T00:51:12.515Z,54.62
2023-04-09T00:52:12.440Z,48.34
2023-04-09T00:53:12.444Z,49.15
2023-04-09T00:54:12.442Z,49.79
2023-04-09T00:55:12.424Z,49.15
2023-04-09T00:56:12.495Z,48.50
2023-04-09T00:57:12.537Z,48.18
2023-04-09T00:58:12.454Z,48.18
2023-04-09T00:59:12.442Z,49.15
2023-04-09T01:00:12.426Z,50.76
2023-04-09T01:01:12.409Z,48.34
2023-04-09T01:02:12.473Z,48.18
2023-04-09T01:03:12.480Z,49.63
2023-04-09T01:04:12.359Z,48.18
2023-04-09T01:05:12.398Z,49.95
2023-04-09T01:06:12.387Z,51.56
2023-04-09T01:07:12.349Z,49.47
2023-04-09T01:08:12.392Z,48.66
2023-04-09T01:09:12.374Z,48.66
2023-04-09T01:10:12.349Z,51.56
2023-04-09T01:11:12.428Z,48.34
2023-04-09T01:12:12.333Z,48.82
2023-04-09T01:13:12.333Z,48.50
2023-04-09T01:14:12.320Z,48.34
2023-04-09T01:15:12.349Z,48.18
2023-04-09T01:16:12.401Z,48.18
2023-04-09T01:17:12.313Z,48.50
2023-04-09T01:18:12.326Z,48.18
2023-04-09T01:19:12.313Z,49.95
2023-04-09T01:20:12.377Z,48.34
2023-04-09T01:21:12.299Z,48.18
2023-04-09T01:22:12.286Z,48.66
2023-04-09T01:23:12.314Z,48.82
2023-04-09T01:24:12.267Z,48.34
2023-04-09T01:25:12.346Z,49.95
2023-04-09T01:26:12.294Z,48.18
2023-04-09T01:27:12.273Z,48.34
2023-04-09T01:28:12.261Z,48.18
2023-04-09T01:29:12.279Z,48.34
2023-04-09T01:30:12.291Z,48.50
2023-04-09T01:31:12.280Z,48.98
2023-04-09T01:32:12.247Z,53.17
2023-04-09T01:33:12.250Z,48.02
2023-04-09T01:34:12.219Z,48.66
2023-04-09T01:35:12.306Z,48.02
2023-04-09T01:36:12.278Z,48.18
2023-04-09T01:37:12.217Z,48.18
2023-04-09T01:38:12.224Z,49.47
2023-04-09T01:39:12.251Z,48.82
2023-04-09T01:40:12.213Z,48.82
2023-04-09T01:41:12.223Z,53.01
2023-04-09T01:42:12.286Z,48.34
2023-04-09T01:43:12.170Z,56.07
2023-04-09T01:44:12.283Z,51.08
2023-04-09T01:45:12.188Z,48.34
2023-04-09T01:46:12.248Z,48.34
2023-04-09T01:47:12.164Z,48.50
2023-04-09T01:48:12.191Z,49.47
2023-04-09T01:49:12.158Z,48.02
2023-04-09T01:50:12.144Z,50.43
2023-04-09T01:51:12.150Z,47.86
2023-04-09T01:52:12.183Z,48.18
2023-04-09T01:53:12.114Z,48.02
2023-04-09T01:54:12.132Z,48.18
2023-04-09T01:55:12.113Z,48.50
2023-04-09T01:56:12.208Z,48.50
2023-04-09T01:57:12.135Z,48.34
2023-04-09T01:58:12.106Z,48.82
2023-04-09T01:59:12.089Z,49.47
2023-04-09T02:00:12.091Z,54.30
2023-04-09T02:01:12.110Z,48.50
2023-04-09T02:02:12.316Z,48.18
2023-04-09T02:03:12.157Z,48.18
2023-04-09T02:04:12.126Z,48.18
2023-04-09T02:05:12.042Z,48.18
2023-04-09T02:06:12.065Z,48.34
2023-04-09T02:07:12.045Z,48.18
2023-04-09T02:08:12.093Z,48.18
2023-04-09T02:09:12.029Z,48.34
2023-04-09T02:10:12.051Z,48.18
2023-04-09T02:11:12.024Z,48.34
2023-04-09T02:12:12.018Z,49.95
2023-04-09T02:13:12.296Z,48.50
2023-04-09T02:14:12.028Z,48.02
2023-04-09T02:15:12.019Z,48.50
2023-04-09T02:16:12.058Z,48.34
2023-04-09T02:17:12.027Z,48.18
2023-04-09T02:18:11.982Z,47.86
2023-04-09T02:19:12.027Z,48.50
2023-04-09T02:20:11.988Z,48.34
2023-04-09T02:21:11.997Z,48.18
2023-04-09T02:22:12.013Z,48.02
2023-04-09T02:23:11.972Z,47.70
2023-04-09T02:24:12.016Z,48.02
2023-04-09T02:25:11.999Z,47.86
2023-04-09T02:26:11.955Z,47.53
2023-04-09T02:27:11.942Z,48.18
2023-04-09T02:28:11.948Z,48.34
2023-04-09T02:29:11.947Z,48.34
2023-04-09T02:30:11.977Z,47.86
2023-04-09T02:31:12.001Z,48.18
2023-04-09T02:32:11.913Z,48.02
2023-04-09T02:33:11.918Z,48.66
2023-04-09T02:34:11.931Z,47.86
2023-04-09T02:35:11.953Z,48.98
2023-04-09T02:36:12.032Z,47.86
2023-04-09T02:37:11.930Z,48.02
2023-04-09T02:38:11.905Z,47.53
2023-04-09T02:39:11.879Z,48.02
2023-04-09T02:40:11.933Z,50.76
2023-04-09T02:41:11.913Z,47.86
2023-04-09T02:42:11.862Z,47.70
2023-04-09T02:43:11.885Z,48.18
2023-04-09T02:44:11.869Z,48.02
2023-04-09T02:45:11.859Z,48.02
2023-04-09T02:46:11.930Z,47.86
2023-04-09T02:47:11.869Z,48.02
2023-04-09T02:48:11.873Z,48.18
2023-04-09T02:49:11.840Z,48.34
2023-04-09T02:50:11.828Z,47.86
2023-04-09T02:51:11.896Z,48.34
2023-04-09T02:52:11.849Z,48.02
2023-04-09T02:53:11.817Z,47.86
2023-04-09T02:54:11.816Z,48.34
2023-04-09T02:55:11.837Z,48.02
2023-04-09T02:56:11.857Z,48.02
2023-04-09T02:57:11.843Z,48.02
2023-04-09T02:58:11.804Z,48.82
2023-04-09T02:59:11.838Z,53.01
2023-04-09T03:00:11.791Z,47.86
2023-04-09T03:01:11.838Z,47.86
2023-04-09T03:02:12.006Z,64.13
2023-04-09T03:03:11.937Z,48.18
2023-04-09T03:04:11.919Z,47.86
2023-04-09T03:05:11.764Z,53.98
2023-04-09T03:06:11.755Z,50.92
2023-04-09T03:07:11.753Z,48.02
2023-04-09T03:08:11.795Z,48.34
2023-04-09T03:09:11.716Z,48.82
2023-04-09T03:10:12.745Z,52.37
2023-04-09T03:11:11.746Z,48.82
2023-04-09T03:12:11.722Z,49.79
2023-04-09T03:13:11.831Z,48.34
2023-04-09T03:14:11.707Z,48.34
2023-04-09T03:15:11.708Z,48.18
2023-04-09T03:16:11.722Z,56.56
2023-04-09T03:17:11.688Z,48.34
2023-04-09T03:18:11.741Z,49.63
2023-04-09T03:19:11.715Z,48.02
2023-04-09T03:20:11.754Z,48.50
2023-04-09T03:21:12.950Z,48.18
2023-04-09T03:22:11.658Z,48.18
2023-04-09T03:23:11.658Z,51.88
2023-04-09T03:24:11.634Z,48.18
2023-04-09T03:25:11.681Z,48.66
2023-04-09T03:26:11.712Z,48.82
2023-04-09T03:27:11.672Z,47.86
2023-04-09T03:28:11.662Z,47.86
2023-04-09T03:29:11.638Z,47.70
2023-04-09T03:30:11.665Z,47.86
2023-04-09T03:31:11.662Z,53.17
2023-04-09T03:32:11.609Z,49.15
2023-04-09T03:33:11.618Z,48.18
2023-04-09T03:34:11.608Z,60.10
2023-04-09T03:35:11.669Z,52.05
2023-04-09T03:36:11.603Z,58.01
2023-04-09T03:37:11.576Z,47.70
2023-04-09T03:38:11.585Z,48.50
2023-04-09T03:39:11.572Z,48.66
2023-04-09T03:40:11.593Z,52.05
2023-04-09T03:41:11.601Z,55.27
2023-04-09T03:42:11.547Z,48.18
2023-04-09T03:43:11.604Z,48.82
2023-04-09T03:44:11.556Z,49.15
2023-04-09T03:45:11.581Z,50.92
2023-04-09T03:46:11.551Z,50.27
2023-04-09T03:47:11.605Z,50.11
2023-04-09T03:48:11.531Z,53.50
2023-04-09T03:49:11.547Z,51.56
2023-04-09T03:50:11.540Z,52.37
2023-04-09T03:51:11.612Z,52.37
2023-04-09T03:52:11.549Z,52.53
2023-04-09T03:53:11.526Z,54.30
2023-04-09T03:54:11.527Z,55.11
2023-04-09T03:55:11.556Z,58.33
2023-04-09T03:56:11.506Z,55.11
2023-04-09T03:57:11.558Z,55.91
2023-04-09T03:58:11.505Z,55.59
2023-04-09T03:59:11.575Z,59.14
2023-04-09T04:00:11.461Z,55.75
2023-04-09T04:01:11.456Z,55.91
2023-04-09T04:02:11.554Z,57.20
2023-04-09T04:03:11.678Z,54.14
2023-04-09T04:04:11.497Z,54.14
2023-04-09T04:05:11.439Z,54.30
2023-04-09T04:06:11.431Z,56.24
2023-04-09T04:07:11.419Z,57.36
2023-04-09T04:08:11.477Z,58.81
2023-04-09T04:09:11.400Z,58.97
2023-04-09T04:10:11.413Z,59.78
2023-04-09T04:11:11.399Z,58.33
2023-04-09T04:12:11.402Z,56.07
2023-04-09T04:13:11.436Z,58.49
2023-04-09T04:14:11.431Z,61.23
2023-04-09T04:15:11.402Z,61.71
2023-04-09T04:16:11.397Z,62.68
2023-04-09T04:17:11.367Z,63.00
2023-04-09T04:18:11.363Z,63.49
2023-04-09T04:19:11.434Z,58.65
2023-04-09T04:20:11.355Z,58.17
2023-04-09T04:21:11.351Z,57.52
2023-04-09T04:22:11.328Z,61.23
2023-04-09T04:23:11.349Z,58.49
2023-04-09T04:24:11.383Z,57.52
2023-04-09T04:25:11.342Z,60.26
2023-04-09T04:26:11.311Z,59.78
2023-04-09T04:27:11.308Z,56.40
2023-04-09T04:28:11.323Z,57.04
2023-04-09T04:29:11.292Z,57.69
2023-04-09T04:30:11.334Z,56.88
2023-04-09T04:31:11.354Z,56.56
2023-04-09T04:32:11.274Z,56.40
2023-04-09T04:33:11.276Z,55.59
2023-04-09T04:34:11.270Z,56.56
2023-04-09T04:35:11.301Z,55.11
2023-04-09T04:36:11.262Z,54.14
2023-04-09T04:37:11.251Z,54.30
2023-04-09T04:38:11.272Z,55.75
2023-04-09T04:39:11.255Z,58.01
2023-04-09T04:40:11.288Z,59.78
2023-04-09T04:41:11.260Z,55.91
2023-04-09T04:42:11.218Z,51.56
2023-04-09T04:43:11.236Z,57.52
2023-04-09T04:44:11.198Z,62.36
2023-04-09T04:45:11.265Z,54.79
2023-04-09T04:46:11.319Z,59.46
2023-04-09T04:47:11.223Z,58.65
2023-04-09T04:48:11.198Z,56.72
2023-04-09T04:49:11.171Z,59.78
2023-04-09T04:50:11.188Z,56.88
2023-04-09T04:51:11.214Z,57.04
2023-04-09T04:52:11.186Z,55.91
2023-04-09T04:53:11.159Z,52.53
2023-04-09T04:54:11.163Z,56.72
2023-04-09T04:55:11.168Z,51.56
2023-04-09T04:56:11.184Z,49.95
2023-04-09T04:57:11.146Z,51.24
2023-04-09T04:58:11.170Z,62.68
2023-04-09T04:59:11.145Z,52.85
2023-04-09T05:00:11.140Z,54.30
2023-04-09T05:01:11.198Z,55.27
2023-04-09T05:02:11.198Z,55.75
2023-04-09T05:03:11.218Z,55.91
2023-04-09T05:04:11.095Z,55.59
2023-04-09T05:05:11.109Z,54.62
2023-04-09T05:06:11.108Z,56.40
2023-04-09T05:07:11.147Z,55.91
2023-04-09T05:08:11.096Z,53.82
2023-04-09T05:09:11.081Z,59.62
2023-04-09T05:10:11.104Z,57.04
2023-04-09T05:11:11.096Z,56.07
2023-04-09T05:12:11.122Z,62.68
2023-04-09T05:13:11.115Z,53.01
2023-04-09T05:14:11.074Z,59.78
2023-04-09T05:15:11.081Z,58.65
2023-04-09T05:16:11.108Z,55.75
2023-04-09T05:17:11.036Z,61.07
2023-04-09T05:18:11.084Z,55.59
2023-04-09T05:19:11.081Z,56.07
2023-04-09T05:20:11.032Z,57.85
2023-04-09T05:21:11.013Z,54.79
2023-04-09T05:22:10.999Z,58.01
2023-04-09T05:23:11.000Z,56.72
2023-04-09T05:24:11.048Z,53.33
2023-04-09T05:25:11.024Z,53.50
2023-04-09T05:26:10.991Z,54.95
2023-04-09T05:27:10.993Z,52.85
2023-04-09T05:28:10.987Z,52.21
2023-04-09T05:29:11.016Z,54.14
2023-04-09T05:30:10.974Z,56.72
2023-04-09T05:31:11.103Z,54.30
2023-04-09T05:32:10.939Z,56.07
2023-04-09T05:33:10.975Z,54.62
2023-04-09T05:34:10.946Z,51.56
2023-04-09T05:35:10.960Z,53.01
2023-04-09T05:36:11.017Z,59.46
2023-04-09T05:37:10.942Z,53.82
2023-04-09T05:38:10.956Z,55.59
2023-04-09T05:39:10.922Z,54.14
2023-04-09T05:40:10.959Z,60.26
2023-04-09T05:41:10.927Z,59.46
2023-04-09T05:42:10.923Z,59.30
2023-04-09T05:43:10.900Z,59.30
2023-04-09T05:44:10.891Z,58.81
2023-04-09T05:45:10.888Z,57.85
2023-04-09T05:46:10.947Z,59.30
2023-04-09T05:47:10.975Z,58.33
2023-04-09T05:48:10.884Z,56.88
2023-04-09T05:49:10.872Z,56.40
2023-04-09T05:50:10.897Z,56.07
2023-04-09T05:51:10.861Z,60.26
2023-04-09T05:52:10.917Z,58.01
2023-04-09T05:53:10.857Z,61.07
2023-04-09T05:54:10.846Z,52.21
2023-04-09T05:55:10.874Z,56.56
2023-04-09T05:56:10.842Z,51.56
2023-04-09T05:57:10.890Z,49.63
2023-04-09T05:58:10.872Z,53.01
2023-04-09T05:59:10.816Z,50.92
2023-04-09T06:00:10.820Z,58.33
2023-04-09T06:01:10.813Z,60.59
2023-04-09T06:02:10.914Z,65.10
2023-04-09T06:03:10.951Z,64.29
2023-04-09T06:04:10.877Z,64.61
2023-04-09T06:05:10.807Z,61.23
2023-04-09T06:06:10.800Z,55.91
2023-04-09T06:07:10.772Z,58.33
2023-04-09T06:08:10.824Z,54.79
2023-04-09T06:09:10.785Z,55.59
2023-04-09T06:10:10.760Z,57.85
2023-04-09T06:11:10.766Z,55.11
2023-04-09T06:12:10.750Z,55.27
2023-04-09T06:13:10.788Z,57.36
2023-04-09T06:14:10.771Z,53.50
2023-04-09T06:15:10.761Z,52.85
2023-04-09T06:16:10.774Z,52.69
2023-04-09T06:17:10.724Z,60.91
2023-04-09T06:18:10.746Z,60.10
2023-04-09T06:19:10.768Z,59.94
2023-04-09T06:20:10.746Z,60.42
2023-04-09T06:21:10.713Z,60.10
2023-04-09T06:22:10.773Z,54.79
2023-04-09T06:23:10.749Z,57.04
2023-04-09T06:24:10.696Z,56.72
2023-04-09T06:25:10.681Z,57.36
2023-04-09T06:26:10.710Z,58.65
2023-04-09T06:27:10.683Z,57.36
2023-04-09T06:28:10.681Z,58.01
2023-04-09T06:29:10.686Z,54.30
2023-04-09T06:30:10.687Z,55.91
2023-04-09T06:31:10.870Z,58.97
2023-04-09T06:32:10.636Z,59.62
2023-04-09T06:33:10.699Z,57.04
2023-04-09T06:34:10.632Z,51.72
2023-04-09T06:35:11.156Z,53.17
2023-04-09T06:36:11.710Z,52.05
2023-04-09T06:37:10.633Z,55.75
2023-04-09T06:38:10.690Z,56.56
2023-04-09T06:39:10.651Z,59.14
2023-04-09T06:40:10.623Z,59.14
2023-04-09T06:41:10.582Z,60.26
2023-04-09T06:42:10.586Z,57.36
2023-04-09T06:43:10.648Z,55.43
2023-04-09T06:44:10.577Z,57.20
2023-04-09T06:45:10.589Z,55.91
2023-04-09T06:46:10.621Z,54.95
2023-04-09T06:47:10.619Z,58.49
2023-04-09T06:48:10.602Z,54.14
2023-04-09T06:49:10.716Z,57.36
2023-04-09T06:50:10.546Z,58.49
2023-04-09T06:51:10.538Z,55.75
2023-04-09T06:52:10.539Z,52.21
2023-04-09T06:53:10.687Z,54.46
2023-04-09T06:54:10.547Z,54.95
2023-04-09T06:55:10.537Z,52.37
2023-04-09T06:56:10.515Z,54.62
2023-04-09T06:57:10.524Z,56.88
2023-04-09T06:58:10.563Z,56.56
2023-04-09T06:59:10.581Z,55.59
2023-04-09T07:00:10.519Z,63.33
2023-04-09T07:01:10.494Z,64.94
2023-04-09T07:02:10.848Z,65.42
2023-04-09T07:03:10.717Z,65.58
2023-04-09T07:04:10.587Z,66.06
2023-04-09T07:05:10.482Z,66.06
2023-04-09T07:06:10.483Z,56.40
2023-04-09T07:07:10.588Z,55.43
2023-04-09T07:08:10.477Z,55.11
2023-04-09T07:09:10.532Z,55.91
2023-04-09T07:10:10.469Z,52.53
2023-04-09T07:11:10.452Z,54.30
2023-04-09T07:12:10.451Z,56.72
2023-04-09T07:13:10.499Z,52.53
2023-04-09T07:14:10.437Z,56.40
2023-04-09T07:15:10.459Z,56.88
2023-04-09T07:16:10.431Z,56.40
2023-04-09T07:17:11.901Z,55.11
2023-04-09T07:18:10.445Z,54.62
2023-04-09T07:19:10.492Z,57.85
2023-04-09T07:20:10.611Z,63.65
2023-04-09T07:21:10.450Z,64.45
2023-04-09T07:22:10.503Z,64.29
2023-04-09T07:23:10.409Z,66.06
2023-04-09T07:24:10.408Z,64.29
2023-04-09T07:25:10.427Z,65.10
2023-04-09T07:26:10.418Z,64.61
2023-04-09T07:27:10.370Z,65.42
2023-04-09T07:28:10.373Z,66.06
2023-04-09T07:29:10.417Z,65.90
2023-04-09T07:30:10.414Z,66.39
2023-04-09T07:31:10.369Z,58.49
2023-04-09T07:32:10.373Z,52.85
2023-04-09T07:33:10.430Z,59.78
2023-04-09T07:34:10.357Z,58.81
2023-04-09T07:35:10.373Z,58.01
2023-04-09T07:36:10.408Z,55.11
2023-04-09T07:37:10.341Z,50.60
2023-04-09T07:38:10.340Z,51.56
2023-04-09T07:39:10.358Z,58.01
2023-04-09T07:40:10.348Z,58.01
2023-04-09T07:41:10.331Z,58.01
2023-04-09T07:42:10.295Z,56.72
2023-04-09T07:43:10.304Z,53.50
2023-04-09T07:44:10.420Z,58.01
2023-04-09T07:45:10.373Z,59.78
2023-04-09T07:46:10.348Z,54.14
2023-04-09T07:47:10.282Z,49.63
2023-04-09T07:48:10.285Z,54.62
2023-04-09T07:49:10.297Z,54.62
2023-04-09T07:50:10.263Z,58.33
2023-04-09T07:51:10.324Z,56.07
2023-04-09T07:52:10.245Z,54.14
2023-04-09T07:53:10.252Z,57.36
2023-04-09T07:54:10.254Z,57.36
2023-04-09T07:55:10.280Z,58.33
2023-04-09T07:56:10.293Z,52.21
2023-04-09T07:57:10.238Z,57.20
2023-04-09T07:58:10.238Z,53.82
2023-04-09T07:59:10.214Z,55.91
2023-04-09T08:00:10.219Z,56.72
2023-04-09T08:01:10.265Z,54.46
2023-04-09T08:02:13.488Z,55.59
2023-04-09T08:03:10.392Z,58.97
2023-04-09T08:04:10.422Z,54.14
2023-04-09T08:05:10.277Z,58.65
2023-04-09T08:06:10.232Z,54.79
2023-04-09T08:07:10.241Z,58.81
2023-04-09T08:08:10.229Z,57.04
2023-04-09T08:09:10.197Z,58.97
2023-04-09T08:10:10.187Z,58.49
2023-04-09T08:11:10.156Z,50.60
2023-04-09T08:12:10.232Z,56.40
2023-04-09T08:13:11.535Z,53.66
2023-04-09T08:14:11.152Z,58.49
2023-04-09T08:15:10.219Z,64.61
2023-04-09T08:16:10.167Z,58.33
2023-04-09T08:17:10.146Z,54.30
2023-04-09T08:18:10.252Z,50.76
2023-04-09T08:19:10.137Z,53.33
2023-04-09T08:20:10.145Z,54.62
2023-04-09T08:21:10.144Z,57.69
2023-04-09T08:22:10.165Z,55.59
2023-04-09T08:23:10.182Z,59.78
2023-04-09T08:24:10.129Z,53.50
2023-04-09T08:25:10.135Z,56.56
2023-04-09T08:26:10.123Z,57.36
2023-04-09T08:27:10.095Z,81.86
2023-04-09T08:28:10.117Z,58.49
2023-04-09T08:29:10.124Z,59.62
2023-04-09T08:30:10.116Z,58.33
2023-04-09T08:31:11.114Z,57.52
2023-04-09T08:32:10.112Z,56.56
2023-04-09T08:33:10.119Z,56.07
2023-04-09T08:34:10.069Z,55.11
2023-04-09T08:35:10.070Z,56.07
2023-04-09T08:36:10.116Z,55.43
2023-04-09T08:37:10.047Z,58.81
2023-04-09T08:38:10.036Z,53.01
2023-04-09T08:39:10.074Z,56.56
2023-04-09T08:40:10.087Z,60.75
2023-04-09T08:41:10.056Z,56.40
2023-04-09T08:42:10.029Z,57.69
2023-04-09T08:43:09.997Z,56.24
2023-04-09T08:44:10.008Z,49.95
2023-04-09T08:45:10.025Z,55.43
2023-04-09T08:46:10.013Z,57.69
2023-04-09T08:47:10.015Z,56.40
2023-04-09T08:48:10.165Z,55.91
2023-04-09T08:49:10.030Z,52.37
2023-04-09T08:50:09.973Z,57.36
2023-04-09T08:51:09.948Z,55.59
2023-04-09T08:52:10.000Z,55.27
2023-04-09T08:53:09.959Z,58.01
2023-04-09T08:54:09.925Z,58.81
2023-04-09T08:55:09.957Z,57.36
2023-04-09T08:56:09.967Z,53.66
2023-04-09T08:57:09.992Z,56.88
2023-04-09T08:58:09.918Z,59.78
2023-04-09T08:59:09.917Z,58.17
2023-04-09T09:00:10.922Z,55.43
2023-04-09T09:01:11.303Z,60.75
2023-04-09T09:02:10.098Z,64.29
2023-04-09T09:03:10.040Z,64.13
2023-04-09T09:04:09.992Z,62.04
2023-04-09T09:05:09.875Z,57.69
2023-04-09T09:06:09.862Z,57.20
2023-04-09T09:07:09.922Z,56.40
2023-04-09T09:08:09.877Z,57.20
2023-04-09T09:09:09.882Z,59.14
2023-04-09T09:10:09.850Z,56.72
2023-04-09T09:11:09.853Z,54.14
2023-04-09T09:12:09.923Z,58.33
2023-04-09T09:13:09.875Z,53.66
2023-04-09T09:14:09.823Z,56.56
2023-04-09T09:15:09.807Z,58.49
2023-04-09T09:16:10.810Z,54.62
2023-04-09T09:17:09.917Z,52.37
2023-04-09T09:18:09.826Z,57.52
2023-04-09T09:19:09.767Z,67.03
2023-04-09T09:20:09.788Z,73.64
2023-04-09T09:21:09.761Z,69.61
2023-04-09T09:22:09.772Z,57.52
2023-04-09T09:23:09.832Z,54.62
2023-04-09T09:24:09.765Z,57.36
2023-04-09T09:25:09.777Z,56.56
2023-04-09T09:26:09.724Z,56.88
2023-04-09T09:27:09.742Z,57.69
2023-04-09T09:28:09.720Z,53.33
2023-04-09T09:29:09.726Z,57.69
2023-04-09T09:30:09.737Z,57.04
2023-04-09T09:31:09.774Z,59.14
2023-04-09T09:32:09.731Z,56.07
2023-04-09T09:33:09.796Z,52.85
2023-04-09T09:34:09.707Z,56.56
2023-04-09T09:35:09.675Z,56.56
2023-04-09T09:36:09.744Z,53.98
2023-04-09T09:37:09.660Z,59.78
2023-04-09T09:38:09.654Z,60.91
2023-04-09T09:39:09.700Z,57.69
2023-04-09T09:40:09.651Z,58.97
2023-04-09T09:41:09.689Z,58.01
2023-04-09T09:42:09.653Z,57.85
2023-04-09T09:43:09.614Z,55.75
2023-04-09T09:44:09.617Z,58.97
2023-04-09T09:45:09.629Z,54.14
2023-04-09T09:46:09.719Z,52.37
2023-04-09T09:47:09.594Z,59.94
2023-04-09T09:48:09.604Z,57.04
2023-04-09T09:49:09.623Z,56.72
2023-04-09T09:50:09.606Z,54.46
2023-04-09T09:51:09.615Z,57.69
2023-04-09T09:52:09.578Z,59.78
2023-04-09T09:53:09.556Z,49.95
2023-04-09T09:54:09.558Z,54.14
2023-04-09T09:55:09.546Z,55.75
2023-04-09T09:56:09.581Z,52.69
2023-04-09T09:57:09.603Z,56.88
2023-04-09T09:58:09.600Z,54.79
2023-04-09T09:59:09.521Z,53.82
2023-04-09T10:00:09.611Z,57.85
2023-04-09T10:01:09.540Z,61.87
2023-04-09T10:02:09.669Z,54.46
2023-04-09T10:03:09.554Z,55.91
2023-04-09T10:04:09.541Z,56.56
2023-04-09T10:05:09.495Z,56.07
2023-04-09T10:06:09.564Z,60.26
2023-04-09T10:07:09.470Z,53.33
2023-04-09T10:08:09.462Z,62.52
2023-04-09T10:09:09.454Z,65.58
2023-04-09T10:10:09.466Z,58.65
2023-04-09T10:11:09.479Z,55.91
2023-04-09T10:12:09.450Z,60.59
2023-04-09T10:13:09.444Z,55.43
2023-04-09T10:14:09.443Z,55.11
2023-04-09T10:15:09.440Z,61.23
2023-04-09T10:16:09.503Z,58.01
2023-04-09T10:17:09.479Z,58.49
2023-04-09T10:18:09.418Z,56.72
2023-04-09T10:19:09.412Z,50.43
2023-04-09T10:20:09.404Z,49.47
2023-04-09T10:21:09.400Z,52.21
2023-04-09T10:22:09.621Z,56.07
2023-04-09T10:23:09.464Z,56.72
2023-04-09T10:24:09.373Z,56.72
2023-04-09T10:25:10.390Z,58.65
2023-04-09T10:26:09.355Z,55.27
2023-04-09T10:27:09.400Z,54.62
2023-04-09T10:28:09.428Z,50.60
2023-04-09T10:29:09.347Z,57.85
2023-04-09T10:30:09.504Z,55.59
2023-04-09T10:31:09.403Z,57.36
2023-04-09T10:32:09.414Z,55.43
2023-04-09T10:33:09.368Z,58.97
2023-04-09T10:34:10.838Z,56.24
2023-04-09T10:35:10.343Z,54.14
2023-04-09T10:36:09.521Z,57.69
2023-04-09T10:37:09.347Z,54.95
2023-04-09T10:38:09.280Z,55.75
2023-04-09T10:39:09.346Z,57.36
2023-04-09T10:40:10.697Z,60.42
2023-04-09T10:41:10.275Z,58.81
2023-04-09T10:42:09.297Z,56.07
2023-04-09T10:43:09.274Z,58.49
2023-04-09T10:44:09.304Z,55.11
2023-04-09T10:45:09.353Z,56.07
2023-04-09T10:46:09.255Z,55.43
2023-04-09T10:47:09.240Z,56.07
2023-04-09T10:48:09.227Z,55.59
2023-04-09T10:49:09.265Z,57.69
2023-04-09T10:50:09.217Z,55.59
2023-04-09T10:51:09.210Z,54.95
2023-04-09T10:52:11.331Z,56.56
2023-04-09T10:53:10.205Z,56.07
2023-04-09T10:54:09.255Z,56.88
2023-04-09T10:55:09.192Z,59.94
2023-04-09T10:56:09.175Z,55.75
2023-04-09T10:57:09.209Z,54.30
2023-04-09T10:58:11.974Z,60.75
2023-04-09T10:59:10.148Z,62.04
2023-04-09T11:00:09.207Z,57.36
2023-04-09T11:01:09.134Z,58.49
2023-04-09T11:02:09.178Z,54.46
2023-04-09T11:03:09.346Z,55.91
2023-04-09T11:04:10.758Z,53.33
2023-04-09T11:05:10.171Z,55.27
2023-04-09T11:06:09.185Z,62.84
2023-04-09T11:07:09.106Z,64.45
2023-04-09T11:08:09.113Z,50.43
2023-04-09T11:09:09.127Z,57.36
2023-04-09T11:10:09.175Z,53.66
2023-04-09T11:11:09.139Z,66.39
2023-04-09T11:12:09.114Z,58.65
2023-04-09T11:13:09.073Z,50.76
2023-04-09T11:14:09.100Z,58.65
2023-04-09T11:15:09.096Z,56.07
2023-04-09T11:16:09.108Z,55.59
2023-04-09T11:17:09.053Z,58.49
2023-04-09T11:18:09.108Z,60.75
2023-04-09T11:19:09.057Z,54.46
2023-04-09T11:20:09.066Z,58.01
2023-04-09T11:21:09.051Z,54.62
2023-04-09T11:22:09.036Z,53.82
2023-04-09T11:23:09.034Z,58.01
2023-04-09T11:24:09.058Z,54.14
2023-04-09T11:25:09.068Z,50.92
2023-04-09T11:26:09.028Z,55.27
2023-04-09T11:27:08.984Z,55.91
2023-04-09T11:28:08.968Z,57.04
2023-04-09T11:29:09.987Z,56.24
2023-04-09T11:30:08.955Z,55.27
2023-04-09T11:31:09.151Z,58.33
2023-04-09T11:32:09.980Z,58.49
2023-04-09T11:33:09.003Z,58.17
2023-04-09T11:34:08.923Z,58.01
2023-04-09T11:35:08.947Z,57.36
2023-04-09T11:36:09.005Z,54.79
2023-04-09T11:37:09.792Z,52.85
2023-04-09T11:38:09.058Z,56.07
2023-04-09T11:39:08.892Z,55.91
2023-04-09T11:40:08.875Z,51.72
2023-04-09T11:41:09.920Z,56.07
2023-04-09T11:42:08.898Z,53.82
2023-04-09T11:43:08.873Z,56.56
2023-04-09T11:44:08.858Z,54.14
2023-04-09T11:45:08.864Z,56.56
2023-04-09T11:46:09.664Z,58.17
2023-04-09T11:47:08.944Z,58.01
2023-04-09T11:48:08.865Z,55.75
2023-04-09T11:49:09.056Z,55.27
2023-04-09T11:50:08.865Z,57.36
2023-04-09T11:51:08.800Z,58.81
2023-04-09T11:52:08.835Z,55.43
2023-04-09T11:53:09.356Z,57.20
2023-04-09T11:54:09.834Z,56.56
2023-04-09T11:55:08.773Z,58.01
2023-04-09T11:56:08.766Z,59.14
2023-04-09T11:57:08.767Z,55.43
2023-04-09T11:58:09.790Z,56.72
2023-04-09T11:59:08.775Z,57.36
2023-04-09T12:00:08.768Z,55.27
2023-04-09T12:01:08.769Z,56.40
2023-04-09T12:02:08.762Z,60.59
2023-04-09T12:03:09.023Z,53.66
2023-04-09T12:04:08.907Z,57.69
2023-04-09T12:05:08.710Z,58.49
2023-04-09T12:06:08.741Z,51.56
2023-04-09T12:07:08.732Z,53.66
2023-04-09T12:08:08.704Z,53.50
2023-04-09T12:09:08.722Z,57.20
2023-04-09T12:10:08.682Z,58.65
2023-04-09T12:11:08.718Z,59.14
2023-04-09T12:12:08.644Z,55.11
2023-04-09T12:13:08.654Z,55.11
2023-04-09T12:14:08.646Z,55.43
2023-04-09T12:15:08.625Z,54.30
2023-04-09T12:16:08.719Z,73.96
2023-04-09T12:17:08.643Z,71.70
2023-04-09T12:18:08.669Z,57.04
2023-04-09T12:19:08.602Z,53.82
2023-04-09T12:20:08.762Z,59.46
2023-04-09T12:21:08.630Z,57.69
2023-04-09T12:22:08.569Z,72.19
2023-04-09T12:23:08.622Z,67.51
2023-04-09T12:24:08.587Z,63.33
2023-04-09T12:25:08.549Z,57.52
2023-04-09T12:26:08.598Z,55.91
2023-04-09T12:27:08.546Z,56.07
2023-04-09T12:28:08.530Z,54.62
2023-04-09T12:29:08.505Z,60.26
2023-04-09T12:30:08.589Z,58.33
2023-04-09T12:31:08.551Z,59.62
2023-04-09T12:32:08.535Z,69.45
2023-04-09T12:33:10.753Z,67.84
2023-04-09T12:34:09.514Z,58.33
2023-04-09T12:35:08.473Z,59.30
2023-04-09T12:36:08.515Z,51.40
2023-04-09T12:37:08.483Z,54.14
2023-04-09T12:38:08.531Z,57.36
2023-04-09T12:39:08.457Z,58.81
2023-04-09T12:40:08.425Z,57.52
2023-04-09T12:41:08.404Z,54.46
2023-04-09T12:42:08.413Z,56.40
2023-04-09T12:43:08.405Z,56.07
2023-04-09T12:44:08.501Z,57.85
2023-04-09T12:45:08.414Z,54.79
2023-04-09T12:46:08.484Z,60.75
2023-04-09T12:47:08.368Z,59.30
2023-04-09T12:48:08.479Z,69.93
2023-04-09T12:49:08.365Z,56.88
2023-04-09T12:50:08.350Z,56.40
2023-04-09T12:51:08.377Z,57.04
2023-04-09T12:52:08.361Z,56.40